sensor_id;sensor_type;location;lat;lon;timestamp;pressure;altitude;pressure_sealevel;temperature;humidity
25130;BME280;13308;50.860;13.664;2023-02-02T06:57:02;96615.41;;;2.17;100.00
25130;BME280;13308;50.860;13.664;2023-02-02T06:59:27;96619.25;;;2.16;100.00
25130;BME280;13308;50.860;13.664;2023-02-02T07:01:53;96615.41;;;2.17;100.00
25130;BME280;13308;50.860;13.664;2023-02-02T07:04:18;96612.31;;;2.19;100.00
25130;BME280;13308;50.860;13.664;2023-02-02T07:06:44;96618.59;;;2.23;100.00
25130;BME280;13308;50.860;13.664;2023-02-02T07:12:34;96614.56;;;2.43;100.00
25130;BME280;13308;50.860;13.664;2023-02-02T07:15:00;96629.31;;;2.42;100.00
25130;BME280;13308;50.860;13.664;2023-02-02T07:17:25;96631.06;;;2.57;100.00
25130;BME280;13308;50.860;13.664;2023-02-02T07:19:50;96639.31;;;2.64;100.00
25130;BME280;13308;50.860;13.664;2023-02-02T07:22:15;96636.31;;;2.72;100.00
25130;BME280;13308;50.860;13.664;2023-02-02T07:24:41;96651.06;;;2.71;100.00
25130;BME280;13308;50.860;13.664;2023-02-02T07:27:06;96640.78;;;2.58;100.00
25130;BME280;13308;50.860;13.664;2023-02-02T07:29:31;96653.94;;;2.52;100.00
25130;BME280;13308;50.860;13.664;2023-02-02T07:31:57;96653.47;;;2.47;100.00
25130;BME280;13308;50.860;13.664;2023-02-02T07:34:23;96650.75;;;2.47;100.00
25130;BME280;13308;50.860;13.664;2023-02-02T07:36:48;96656.22;;;2.47;100.00
25130;BME280;13308;50.860;13.664;2023-02-02T07:39:13;96649.25;;;2.49;100.00
25130;BME280;13308;50.860;13.664;2023-02-02T07:41:39;96643.13;;;2.56;100.00
25130;BME280;13308;50.860;13.664;2023-02-02T07:44:13;96653.88;;;2.49;100.00
25130;BME280;13308;50.860;13.664;2023-02-02T07:46:44;96652.38;;;2.51;100.00
25130;BME280;13308;50.860;13.664;2023-02-02T07:49:16;96652.81;;;2.53;100.00
25130;BME280;13308;50.860;13.664;2023-02-02T07:51:42;96653.56;;;2.54;100.00
25130;BME280;13308;50.860;13.664;2023-02-02T07:54:07;96657.13;;;2.58;100.00
25130;BME280;13308;50.860;13.664;2023-02-02T07:56:33;96675.06;;;2.62;100.00
25130;BME280;13308;50.860;13.664;2023-02-02T07:58:58;96662.22;;;2.59;100.00
25130;BME280;13308;50.860;13.664;2023-02-02T08:01:25;96659.59;;;2.70;100.00
25130;BME280;13308;50.860;13.664;2023-02-02T08:03:52;96672.00;;;2.67;100.00
25130;BME280;13308;50.860;13.664;2023-02-02T08:06:23;96670.56;;;2.77;100.00
25130;BME280;13308;50.860;13.664;2023-02-02T08:08:49;96669.00;;;2.76;100.00
25130;BME280;13308;50.860;13.664;2023-02-02T08:11:18;96679.09;;;2.75;100.00
25130;BME280;13308;50.860;13.664;2023-02-02T08:13:47;96679.06;;;2.72;100.00
25130;BME280;13308;50.860;13.664;2023-02-02T08:16:13;96685.75;;;2.78;100.00
25130;BME280;13308;50.860;13.664;2023-02-02T08:18:38;96682.63;;;2.76;100.00
25130;BME280;13308;50.860;13.664;2023-02-02T08:21:06;96675.59;;;2.75;100.00
25130;BME280;13308;50.860;13.664;2023-02-02T08:23:32;96680.72;;;2.80;100.00
25130;BME280;13308;50.860;13.664;2023-02-02T08:26:25;96687.31;;;2.79;100.00
25130;BME280;13308;50.860;13.664;2023-02-02T08:28:53;96689.31;;;2.82;100.00
25130;BME280;13308;50.860;13.664;2023-02-02T08:31:23;96686.91;;;2.77;100.00
25130;BME280;13308;50.860;13.664;2023-02-02T08:33:49;96697.88;;;2.84;100.00
25130;BME280;13308;50.860;13.664;2023-02-02T08:36:18;96694.00;;;2.85;100.00
25130;BME280;13308;50.860;13.664;2023-02-02T08:38:44;96707.25;;;2.86;100.00
25130;BME280;13308;50.860;13.664;2023-02-02T08:41:11;96690.88;;;2.83;100.00
25130;BME280;13308;50.860;13.664;2023-02-02T08:43:37;96706.88;;;2.88;100.00
25130;BME280;13308;50.860;13.664;2023-02-02T08:46:03;96707.72;;;2.92;100.00
25130;BME280;13308;50.860;13.664;2023-02-02T08:48:28;96699.88;;;2.87;100.00
25130;BME280;13308;50.860;13.664;2023-02-02T08:50:55;96715.81;;;2.88;100.00
25130;BME280;13308;50.860;13.664;2023-02-02T08:53:21;96708.94;;;2.98;100.00
25130;BME280;13308;50.860;13.664;2023-02-02T08:55:47;96713.16;;;2.92;100.00
25130;BME280;13308;50.860;13.664;2023-02-02T08:58:13;96716.66;;;2.92;100.00
25130;BME280;13308;50.860;13.664;2023-02-02T09:00:38;96720.25;;;3.00;100.00
25130;BME280;13308;50.860;13.664;2023-02-02T09:03:04;96715.13;;;2.95;100.00
25130;BME280;13308;50.860;13.664;2023-02-02T09:05:29;96722.13;;;2.96;100.00
25130;BME280;13308;50.860;13.664;2023-02-02T09:07:55;96722.56;;;2.98;100.00
25130;BME280;13308;50.860;13.664;2023-02-02T09:10:20;96727.59;;;2.96;100.00
25130;BME280;13308;50.860;13.664;2023-02-02T09:12:46;96717.84;;;2.95;100.00
25130;BME280;13308;50.860;13.664;2023-02-02T09:15:11;96726.34;;;2.90;100.00
25130;BME280;13308;50.860;13.664;2023-02-02T09:17:37;96728.78;;;2.98;100.00
25130;BME280;13308;50.860;13.664;2023-02-02T09:20:03;96739.25;;;2.93;100.00
25130;BME280;13308;50.860;13.664;2023-02-02T09:22:29;96743.13;;;2.92;100.00
25130;BME280;13308;50.860;13.664;2023-02-02T09:24:54;96736.50;;;2.93;100.00
25130;BME280;13308;50.860;13.664;2023-02-02T09:27:19;96736.78;;;2.84;100.00
25130;BME280;13308;50.860;13.664;2023-02-02T09:29:44;96744.69;;;2.93;100.00
25130;BME280;13308;50.860;13.664;2023-02-02T09:32:10;96754.75;;;2.89;100.00
25130;BME280;13308;50.860;13.664;2023-02-02T09:34:35;96754.09;;;2.99;100.00
25130;BME280;13308;50.860;13.664;2023-02-02T09:37:01;96753.25;;;2.95;100.00
25130;BME280;13308;50.860;13.664;2023-02-02T09:39:26;96762.63;;;2.97;100.00
25130;BME280;13308;50.860;13.664;2023-02-02T09:42:22;96762.53;;;2.90;100.00
25130;BME280;13308;50.860;13.664;2023-02-02T09:45:06;96771.91;;;2.93;100.00
25130;BME280;13308;50.860;13.664;2023-02-02T09:58:04;96778.41;;;2.85;100.00
25130;BME280;13308;50.860;13.664;2023-02-02T10:00:37;96772.59;;;2.86;100.00
25130;BME280;13308;50.860;13.664;2023-02-02T10:03:12;96772.59;;;2.86;100.00
25130;BME280;13308;50.860;13.664;2023-02-02T10:08:44;96779.56;;;2.84;100.00
25130;BME280;13308;50.860;13.664;2023-02-02T10:11:33;96774.44;;;2.79;100.00
25130;BME280;13308;50.860;13.664;2023-02-02T10:14:22;96777.59;;;2.81;100.00
25130;BME280;13308;50.860;13.664;2023-02-02T10:16:52;96779.13;;;2.78;100.00
25130;BME280;13308;50.860;13.664;2023-02-02T10:19:19;96779.56;;;2.84;100.00
25130;BME280;13308;50.860;13.664;2023-02-02T10:21:59;96788.56;;;2.88;100.00
25130;BME280;13308;50.860;13.664;2023-02-02T10:24:29;96796.34;;;2.86;100.00
25130;BME280;13308;50.860;13.664;2023-02-02T10:26:58;96790.06;;;2.82;100.00
25130;BME280;13308;50.860;13.664;2023-02-02T10:29:57;96788.06;;;2.79;100.00
25130;BME280;13308;50.860;13.664;2023-02-02T10:32:47;96798.19;;;2.78;100.00
25130;BME280;13308;50.860;13.664;2023-02-02T10:35:18;96792.06;;;2.88;100.00
25130;BME280;13308;50.860;13.664;2023-02-02T10:37:58;96799.16;;;2.93;100.00
25130;BME280;13308;50.860;13.664;2023-02-02T10:41:10;96794.38;;;2.86;100.00
25130;BME280;13308;50.860;13.664;2023-02-02T10:44:02;96797.16;;;2.90;100.00
25130;BME280;13308;50.860;13.664;2023-02-02T10:46:33;96802.19;;;2.88;100.00
25130;BME280;13308;50.860;13.664;2023-02-02T10:49:19;96808.31;;;2.81;100.00
25130;BME280;13308;50.860;13.664;2023-02-02T10:52:15;96797.44;;;2.81;100.00
25130;BME280;13308;50.860;13.664;2023-02-02T10:54:48;96811.53;;;2.87;100.00
25130;BME280;13308;50.860;13.664;2023-02-02T10:57:19;96810.28;;;2.81;100.00
25130;BME280;13308;50.860;13.664;2023-02-02T11:00:03;96797.06;;;2.83;100.00
25130;BME280;13308;50.860;13.664;2023-02-02T11:02:31;96802.88;;;2.81;100.00
25130;BME280;13308;50.860;13.664;2023-02-02T11:04:56;96803.66;;;2.82;100.00
25130;BME280;13308;50.860;13.664;2023-02-02T11:07:40;96798.31;;;2.89;100.00
25130;BME280;13308;50.860;13.664;2023-02-02T11:10:05;96798.00;;;2.94;100.00
25130;BME280;13308;50.860;13.664;2023-02-02T11:12:36;96802.00;;;3.03;100.00
25130;BME280;13308;50.860;13.664;2023-02-02T11:15:28;96814.09;;;3.06;100.00
25130;BME280;13308;50.860;13.664;2023-02-02T11:17:54;96809.25;;;2.92;100.00
25130;BME280;13308;50.860;13.664;2023-02-02T11:20:35;96803.75;;;2.89;100.00
25130;BME280;13308;50.860;13.664;2023-02-02T11:23:04;96811.53;;;2.87;100.00
25130;BME280;13308;50.860;13.664;2023-02-02T11:25:37;96814.25;;;2.87;100.00
25130;BME280;13308;50.860;13.664;2023-02-02T11:28:18;96817.28;;;2.82;100.00
25130;BME280;13308;50.860;13.664;2023-02-02T11:30:46;96813.31;;;2.76;100.00
25130;BME280;13308;50.860;13.664;2023-02-02T11:33:29;96810.38;;;2.88;100.00
25130;BME280;13308;50.860;13.664;2023-02-02T11:36:18;96818.50;;;2.84;100.00
25130;BME280;13308;50.860;13.664;2023-02-02T11:38:44;96815.06;;;2.91;100.00
25130;BME280;13308;50.860;13.664;2023-02-02T11:41:10;96808.53;;;2.95;100.00
25130;BME280;13308;50.860;13.664;2023-02-02T11:43:51;96823.28;;;2.94;100.00
25130;BME280;13308;50.860;13.664;2023-02-02T11:46:20;96823.00;;;3.03;100.00
25130;BME280;13308;50.860;13.664;2023-02-02T11:48:57;96826.56;;;3.07;100.00
25130;BME280;13308;50.860;13.664;2023-02-02T11:51:25;96832.47;;;2.83;100.00
25130;BME280;13308;50.860;13.664;2023-02-02T11:54:02;96830.16;;;2.85;100.00
25130;BME280;13308;50.860;13.664;2023-02-02T11:56:30;96823.22;;;2.91;100.00
25130;BME280;13308;50.860;13.664;2023-02-02T11:58:56;96828.78;;;2.98;100.00
25130;BME280;13308;50.860;13.664;2023-02-02T12:01:31;96833.22;;;2.80;100.00
25130;BME280;13308;50.860;13.664;2023-02-02T12:04:00;96838.81;;;2.90;100.00
25130;BME280;13308;50.860;13.664;2023-02-02T12:09:00;96831.16;;;3.03;100.00
25130;BME280;13308;50.860;13.664;2023-02-02T12:11:49;96839.03;;;3.08;100.00
25130;BME280;13308;50.860;13.664;2023-02-02T12:17:18;96832.63;;;3.23;100.00
25130;BME280;13308;50.860;13.664;2023-02-02T12:20:07;96841.03;;;3.44;100.00
25130;BME280;13308;50.860;13.664;2023-02-02T12:22:55;96839.72;;;3.64;100.00
25130;BME280;13308;50.860;13.664;2023-02-02T12:25:44;96842.56;;;3.74;100.00
25130;BME280;13308;50.860;13.664;2023-02-02T12:28:32;96853.63;;;4.28;100.00
25130;BME280;13308;50.860;13.664;2023-02-02T12:31:14;96853.81;;;4.06;100.00
25130;BME280;13308;50.860;13.664;2023-02-02T12:33:57;96847.94;;;4.04;100.00
25130;BME280;13308;50.860;13.664;2023-02-02T12:39:32;96846.00;;;3.68;100.00
25130;BME280;13308;50.860;13.664;2023-02-02T12:45:15;96845.81;;;3.50;100.00
25130;BME280;13308;50.860;13.664;2023-02-02T12:47:58;96856.34;;;3.52;100.00
25130;BME280;13308;50.860;13.664;2023-02-02T12:54:01;96861.84;;;3.26;100.00
25130;BME280;13308;50.860;13.664;2023-02-02T12:56:43;96862.59;;;3.23;100.00
25130;BME280;13308;50.860;13.664;2023-02-02T12:59:37;96862.50;;;3.16;100.00
25130;BME280;13308;50.860;13.664;2023-02-02T13:02:24;96863.97;;;3.10;100.00
25130;BME280;13308;50.860;13.664;2023-02-02T13:07:48;96863.13;;;3.06;100.00
25130;BME280;13308;50.860;13.664;2023-02-02T13:10:20;96853.81;;;3.07;100.00
25130;BME280;13308;50.860;13.664;2023-02-02T13:13:24;96861.34;;;3.17;100.00
25130;BME280;13308;50.860;13.664;2023-02-02T13:15:57;96868.78;;;3.20;100.00
25130;BME280;13308;50.860;13.664;2023-02-02T13:18:36;96885.88;;;3.17;100.00
25130;BME280;13308;50.860;13.664;2023-02-02T13:21:15;96877.59;;;3.10;100.00
25130;BME280;13308;50.860;13.664;2023-02-02T13:23:46;96881.09;;;3.10;100.00
25130;BME280;13308;50.860;13.664;2023-02-02T13:26:18;96887.34;;;3.11;100.00
25130;BME280;13308;50.860;13.664;2023-02-02T13:31:24;96894.97;;;3.02;100.00
25130;BME280;13308;50.860;13.664;2023-02-02T13:34:01;96901.09;;;2.92;100.00
25130;BME280;13308;50.860;13.664;2023-02-02T13:36:32;96898.13;;;2.78;100.00
25130;BME280;13308;50.860;13.664;2023-02-02T13:39:11;96907.03;;;2.75;100.00
25130;BME280;13308;50.860;13.664;2023-02-02T13:41:37;96911.75;;;2.78;100.00
25130;BME280;13308;50.860;13.664;2023-02-02T13:44:08;96917.09;;;2.71;100.00
25130;BME280;13308;50.860;13.664;2023-02-02T13:49:22;96921.03;;;2.51;100.00
25130;BME280;13308;50.860;13.664;2023-02-02T13:52:00;96931.50;;;2.49;100.00
25130;BME280;13308;50.860;13.664;2023-02-02T13:55:01;96935.47;;;2.55;100.00
25130;BME280;13308;50.860;13.664;2023-02-02T14:00:37;96940.38;;;2.68;100.00
25130;BME280;13308;50.860;13.664;2023-02-02T14:03:21;96953.63;;;2.70;100.00
25130;BME280;13308;50.860;13.664;2023-02-02T14:06:13;96959.19;;;2.77;100.00
25130;BME280;13308;50.860;13.664;2023-02-02T14:09:00;96979.09;;;2.81;100.00
25130;BME280;13308;50.860;13.664;2023-02-02T14:11:30;96975.03;;;2.94;100.00
25130;BME280;13308;50.860;13.664;2023-02-02T14:19:54;96985.31;;;3.04;100.00
25130;BME280;13308;50.860;13.664;2023-02-02T14:22:39;96987.72;;;3.09;100.00
25130;BME280;13308;50.860;13.664;2023-02-02T14:28:11;96997.66;;;2.98;100.00
25130;BME280;13308;50.860;13.664;2023-02-02T14:30:38;96990.63;;;2.97;100.00
25130;BME280;13308;50.860;13.664;2023-02-02T14:38:18;96990.53;;;2.90;100.00
25130;BME280;13308;50.860;13.664;2023-02-02T14:40:56;96986.97;;;2.86;100.00
25130;BME280;13308;50.860;13.664;2023-02-02T14:43:34;97005.59;;;2.84;100.00
25130;BME280;13308;50.860;13.664;2023-02-02T14:48:38;97013.09;;;2.90;100.00
25130;BME280;13308;50.860;13.664;2023-02-02T14:51:13;97021.34;;;2.94;100.00
25130;BME280;13308;50.860;13.664;2023-02-02T14:53:47;97027.50;;;2.91;100.00
25130;BME280;13308;50.860;13.664;2023-02-02T14:56:14;97030.97;;;2.88;100.00
25130;BME280;13308;50.860;13.664;2023-02-02T14:58:45;97027.06;;;2.89;100.00
25130;BME280;13308;50.860;13.664;2023-02-02T15:03:52;97028.47;;;2.79;100.00
25130;BME280;13308;50.860;13.664;2023-02-02T15:19:48;97063.06;;;2.79;100.00
25130;BME280;13308;50.860;13.664;2023-02-02T15:22:36;97067.41;;;2.80;100.00
25130;BME280;13308;50.860;13.664;2023-02-02T15:25:17;97071.25;;;2.79;100.00
25130;BME280;13308;50.860;13.664;2023-02-02T15:27:51;97072.84;;;2.80;100.00
25130;BME280;13308;50.860;13.664;2023-02-02T15:30:18;97068.22;;;2.84;100.00
25130;BME280;13308;50.860;13.664;2023-02-02T15:32:44;97067.41;;;2.80;100.00
25130;BME280;13308;50.860;13.664;2023-02-02T15:35:17;97091.91;;;2.80;100.00
25130;BME280;13308;50.860;13.664;2023-02-02T15:37:47;97075.06;;;2.74;100.00
25130;BME280;13308;50.860;13.664;2023-02-02T15:40:15;97086.69;;;2.71;100.00
25130;BME280;13308;50.860;13.664;2023-02-02T15:42:48;97092.41;;;2.66;100.00
25130;BME280;13308;50.860;13.664;2023-02-02T15:45:42;97103.50;;;2.77;100.00
25130;BME280;13308;50.860;13.664;2023-02-02T15:48:25;97100.72;;;2.73;100.00
25130;BME280;13308;50.860;13.664;2023-02-02T15:50:54;97102.56;;;2.69;100.00
25130;BME280;13308;50.860;13.664;2023-02-02T15:53:23;97114.63;;;2.68;100.00
25130;BME280;13308;50.860;13.664;2023-02-02T15:55:50;97117.69;;;2.67;100.00
25130;BME280;13308;50.860;13.664;2023-02-02T15:58:21;97124.75;;;2.68;100.00
25130;BME280;13308;50.860;13.664;2023-02-02T16:00:54;97128.00;;;2.77;100.00
25130;BME280;13308;50.860;13.664;2023-02-02T16:03:25;97135.69;;;2.71;100.00
25130;BME280;13308;50.860;13.664;2023-02-02T16:05:53;97145.78;;;2.71;100.00
25130;BME280;13308;50.860;13.664;2023-02-02T16:08:24;97146.22;;;2.73;100.00
25130;BME280;13308;50.860;13.664;2023-02-02T16:11:01;97158.25;;;2.72;100.00
25130;BME280;13308;50.860;13.664;2023-02-02T16:13:28;97168.13;;;2.61;100.00
25130;BME280;13308;50.860;13.664;2023-02-02T16:15:55;97173.78;;;2.52;100.00
25130;BME280;13308;50.860;13.664;2023-02-02T16:18:21;97177.81;;;2.39;100.00
25130;BME280;13308;50.860;13.664;2023-02-02T16:20:47;97175.06;;;2.39;100.00
25130;BME280;13308;50.860;13.664;2023-02-02T16:23:15;97185.53;;;2.37;100.00
25130;BME280;13308;50.860;13.664;2023-02-02T16:25:50;97188.53;;;2.32;100.00
25130;BME280;13308;50.860;13.664;2023-02-02T16:28:17;97194.69;;;2.29;100.00
25130;BME280;13308;50.860;13.664;2023-02-02T16:30:44;97194.59;;;2.26;100.00
25130;BME280;13308;50.860;13.664;2023-02-02T16:33:42;97199.47;;;2.17;100.00
25130;BME280;13308;50.860;13.664;2023-02-02T16:36:22;97192.28;;;2.09;100.00
25130;BME280;13308;50.860;13.664;2023-02-02T16:38:49;97212.19;;;2.13;100.00
25130;BME280;13308;50.860;13.664;2023-02-02T16:41:30;97208.44;;;2.17;100.00
25130;BME280;13308;50.860;13.664;2023-02-02T16:47:01;97219.09;;;2.26;100.00
25130;BME280;13308;50.860;13.664;2023-02-02T16:49:27;97223.41;;;2.27;100.00
25130;BME280;13308;50.860;13.664;2023-02-02T16:54:31;97217.25;;;2.30;100.00
25130;BME280;13308;50.860;13.664;2023-02-02T16:56:59;97217.25;;;2.30;100.00
25130;BME280;13308;50.860;13.664;2023-02-02T16:59:29;97219.69;;;2.35;100.00
25130;BME280;13308;50.860;13.664;2023-02-02T17:02:19;97232.88;;;2.33;100.00
25130;BME280;13308;50.860;13.664;2023-02-02T17:04:49;97239.16;;;2.37;100.00
25130;BME280;13308;50.860;13.664;2023-02-02T17:07:16;97241.63;;;2.42;100.00
25130;BME280;13308;50.860;13.664;2023-02-02T17:09:43;97244.06;;;2.47;100.00
25130;BME280;13308;50.860;13.664;2023-02-02T17:17:14;97261.69;;;2.53;100.00
25130;BME280;13308;50.860;13.664;2023-02-02T17:19:39;97270.56;;;2.50;100.00
25130;BME280;13308;50.860;13.664;2023-02-02T17:22:05;97258.28;;;2.56;100.00
25130;BME280;13308;50.860;13.664;2023-02-02T17:24:31;97273.88;;;2.59;100.00
25130;BME280;13308;50.860;13.664;2023-02-02T17:26:57;97278.44;;;2.55;100.00
25130;BME280;13308;50.860;13.664;2023-02-02T17:29:22;97290.16;;;2.55;100.00
25130;BME280;13308;50.860;13.664;2023-02-02T17:31:48;97288.56;;;2.54;100.00
25130;BME280;13308;50.860;13.664;2023-02-02T17:34:13;97299.38;;;2.51;100.00
25130;BME280;13308;50.860;13.664;2023-02-02T17:36:39;97308.78;;;2.53;100.00
25130;BME280;13308;50.860;13.664;2023-02-02T17:39:05;97318.06;;;2.52;100.00
25130;BME280;13308;50.860;13.664;2023-02-02T17:41:31;97321.94;;;2.51;100.00
25130;BME280;13308;50.860;13.664;2023-02-02T17:43:57;97325.44;;;2.52;100.00
25130;BME280;13308;50.860;13.664;2023-02-02T17:46:22;97332.03;;;2.51;100.00
25130;BME280;13308;50.860;13.664;2023-02-02T17:48:47;97334.41;;;2.52;100.00
25130;BME280;13308;50.860;13.664;2023-02-02T17:51:14;97338.59;;;2.50;100.00
25130;BME280;13308;50.860;13.664;2023-02-02T17:53:40;97334.03;;;2.54;100.00
25130;BME280;13308;50.860;13.664;2023-02-02T17:56:06;97336.78;;;2.54;100.00
25130;BME280;13308;50.860;13.664;2023-02-02T17:58:31;97339.84;;;2.52;100.00
25130;BME280;13308;50.860;13.664;2023-02-02T18:00:57;97339.22;;;2.59;100.00
25130;BME280;13308;50.860;13.664;2023-02-02T18:03:28;97343.19;;;2.61;100.00
25130;BME280;13308;50.860;13.664;2023-02-02T18:05:55;97351.06;;;2.66;100.00
25130;BME280;13308;50.860;13.664;2023-02-02T18:08:22;97358.91;;;2.68;100.00
25130;BME280;13308;50.860;13.664;2023-02-02T18:10:47;97347.81;;;2.61;100.00
25130;BME280;13308;50.860;13.664;2023-02-02T18:13:14;97362.66;;;2.63;100.00
25130;BME280;13308;50.860;13.664;2023-02-02T18:15:40;97350.91;;;2.59;100.00
25130;BME280;13308;50.860;13.664;2023-02-02T18:18:06;97358.28;;;2.59;100.00
25130;BME280;13308;50.860;13.664;2023-02-02T18:20:31;97361.44;;;2.61;100.00
25130;BME280;13308;50.860;13.664;2023-02-02T18:22:57;97374.34;;;2.64;100.00
25130;BME280;13308;50.860;13.664;2023-02-02T18:25:23;97366.44;;;2.59;100.00
25130;BME280;13308;50.860;13.664;2023-02-02T18:27:48;97356.28;;;2.56;100.00
25130;BME280;13308;50.860;13.664;2023-02-02T18:30:15;97364.88;;;2.58;100.00
25130;BME280;13308;50.860;13.664;2023-02-02T18:32:41;97374.00;;;2.50;100.00
25130;BME280;13308;50.860;13.664;2023-02-02T18:35:08;97370.84;;;2.48;100.00
25130;BME280;13308;50.860;13.664;2023-02-02T18:37:34;97365.41;;;2.48;100.00
25130;BME280;13308;50.860;13.664;2023-02-02T18:40:00;97369.97;;;2.44;100.00
25130;BME280;13308;50.860;13.664;2023-02-02T18:42:25;97372.88;;;2.51;100.00
25130;BME280;13308;50.860;13.664;2023-02-02T18:44:56;97374.78;;;2.50;100.00
25130;BME280;13308;50.860;13.664;2023-02-02T18:47:22;97376.28;;;2.48;100.00
25130;BME280;13308;50.860;13.664;2023-02-02T18:49:47;97386.56;;;2.54;100.00
25130;BME280;13308;50.860;13.664;2023-02-02T18:52:12;97383.50;;;2.56;100.00
25130;BME280;13308;50.860;13.664;2023-02-02T18:54:38;97381.56;;;2.56;100.00
25130;BME280;13308;50.860;13.664;2023-02-02T18:57:03;97378.06;;;2.56;100.00
25130;BME280;13308;50.860;13.664;2023-02-02T18:59:28;97383.50;;;2.56;100.00
25130;BME280;13308;50.860;13.664;2023-02-02T19:01:56;97391.94;;;2.51;100.00
25130;BME280;13308;50.860;13.664;2023-02-02T19:04:21;97380.25;;;2.50;100.00
25130;BME280;13308;50.860;13.664;2023-02-02T19:06:47;97394.19;;;2.49;100.00
25130;BME280;13308;50.860;13.664;2023-02-02T19:09:31;97381.47;;;2.53;100.00
25130;BME280;13308;50.860;13.664;2023-02-02T19:11:56;97389.91;;;2.48;100.00
25130;BME280;13308;50.860;13.664;2023-02-02T19:14:32;97386.41;;;2.47;100.00
25130;BME280;13308;50.860;13.664;2023-02-02T19:19:38;97403.00;;;2.42;100.00
25130;BME280;13308;50.860;13.664;2023-02-02T19:22:22;97412.75;;;2.43;100.00
25130;BME280;13308;50.860;13.664;2023-02-02T19:24:48;97414.13;;;2.37;100.00
25130;BME280;13308;50.860;13.664;2023-02-02T19:27:21;97404.66;;;2.31;100.00
